Time;durP1;ratioP1;P1;durP2;ratioP2;P2;SDS_P1;SDS_P2;PMS_P1;PMS_P2;Temp;Humidity;BMP_temperature;BMP_pressure;BME280_temperature;BME280_humidity;BME280_pressure;Samples;Min_cycle;Max_cycle;Signal;HPM_P1;HPM_P2
2023/06/24 00:00:51;;;;;;;14.70;13.10;;;;;;;22.79;67.89;99172.20;106747;1268;59615;-39
2023/06/24 00:03:19;;;;;;;14.30;12.80;;;;;;;22.76;68.13;99169.36;107199;1263;60314;-39
2023/06/24 00:05:49;;;;;;;18.10;11.90;;;;;;;22.74;68.38;99165.27;107222;1257;73084;-39
2023/06/24 00:08:19;;;;;;;14.90;12.50;;;;;;;22.76;68.49;99162.60;107282;1257;67904;-40
2023/06/24 00:10:46;;;;;;;14.50;12.00;;;;;;;22.78;68.66;99157.08;107316;1260;72765;-40
2023/06/24 00:13:15;;;;;;;16.90;12.30;;;;;;;22.77;68.65;99159.57;107265;1258;60071;-40
2023/06/24 00:15:43;;;;;;;16.60;11.60;;;;;;;22.73;68.81;99154.80;107235;1257;59330;-40
2023/06/24 00:18:11;;;;;;;15.20;12.00;;;;;;;22.69;68.89;99153.42;107224;1258;73100;-40
2023/06/24 00:20:38;;;;;;;14.10;12.30;;;;;;;22.65;69.07;99148.02;107223;1258;67570;-40
2023/06/24 00:23:06;;;;;;;12.60;11.30;;;;;;;22.62;69.25;99139.91;107191;1262;72650;-40
2023/06/24 00:25:33;;;;;;;13.50;11.70;;;;;;;22.60;69.43;99134.13;107193;1258;61760;-40
2023/06/24 00:28:01;;;;;;;15.10;11.40;;;;;;;22.61;69.49;99133.38;107219;1263;60537;-39
2023/06/24 00:30:29;;;;;;;14.80;12.00;;;;;;;22.62;69.45;99132.65;107191;1258;71803;-40
2023/06/24 00:32:56;;;;;;;12.30;10.80;;;;;;;22.60;69.59;99133.84;107298;1255;68108;-40
2023/06/24 00:35:24;;;;;;;14.20;10.90;;;;;;;22.56;69.79;99144.45;107431;1260;73113;-40
2023/06/24 00:37:57;;;;;;;14.00;10.70;;;;;;;22.54;70.06;99146.73;107331;1259;60461;-39
2023/06/24 00:40:27;;;;;;;12.50;10.60;;;;;;;22.51;70.51;99144.38;107355;1259;59467;-40
2023/06/24 00:42:54;;;;;;;12.70;11.00;;;;;;;22.49;70.67;99140.27;107341;1254;73033;-39
2023/06/24 00:45:22;;;;;;;17.20;10.90;;;;;;;22.46;70.65;99133.79;107049;1257;67852;-39
2023/06/24 00:47:51;;;;;;;14.50;10.90;;;;;;;22.46;70.56;99128.29;107250;1260;72627;-40
2023/06/24 00:50:19;;;;;;;13.50;9.90;;;;;;;22.50;70.45;99127.44;107248;1254;61671;-39
2023/06/24 00:52:48;;;;;;;11.10;9.10;;;;;;;22.55;70.41;99124.05;107290;1255;60036;-39
2023/06/24 00:55:17;;;;;;;11.40;9.40;;;;;;;22.56;70.16;99119.27;107235;1256;73043;-39
2023/06/24 00:58:01;;;;;;;13.90;10.20;;;;;;;22.55;69.97;99110.16;107025;1257;67557;-40
2023/06/24 01:03:54;;;;;;;14.30;10.10;;;;;;;22.59;69.76;99089.41;106744;1257;60660;-39
2023/06/24 01:06:28;;;;;;;12.90;9.20;;;;;;;22.63;69.76;99077.83;107024;1258;61041;-39
2023/06/24 01:09:12;;;;;;;12.90;10.10;;;;;;;22.68;69.57;99070.73;107159;1261;73022;-39
2023/06/24 01:11:52;;;;;;;11.90;9.60;;;;;;;22.73;69.36;99067.78;107072;1258;70056;-37
2023/06/24 01:14:20;;;;;;;11.80;9.70;;;;;;;22.75;69.21;99079.00;107293;1257;72737;-38
2023/06/24 01:16:56;;;;;;;12.60;10.10;;;;;;;22.75;70.22;99086.35;107166;1257;61670;-38
2023/06/24 01:19:40;;;;;;;14.00;9.50;;;;;;;22.72;70.96;99089.08;107227;1256;59606;-40
2023/06/24 01:22:14;;;;;;;12.10;10.00;;;;;;;22.65;70.78;99089.58;107316;1259;71344;-39
2023/06/24 01:25:04;;;;;;;14.70;10.20;;;;;;;22.58;70.36;99087.64;107111;1256;67936;-39
2023/06/24 01:27:44;;;;;;;12.30;9.20;;;;;;;22.53;70.22;99090.30;107264;1257;72777;-40
2023/06/24 01:30:31;;;;;;;;;;;;;;;22.52;70.53;99099.74;107320;1257;59608;-39
2023/06/24 01:33:04;;;;;;;15.60;9.80;;;;;;;22.42;71.81;99109.47;107166;1256;59573;-39
2023/06/24 01:35:33;;;;;;;14.00;9.70;;;;;;;22.36;71.75;99113.49;107309;1260;73040;-40
2023/06/24 01:38:12;;;;;;;11.70;9.70;;;;;;;22.34;71.42;99111.56;107276;1256;66602;-40
2023/06/24 01:40:45;;;;;;;14.40;9.70;;;;;;;22.34;71.19;99111.81;107187;1257;72702;-40
2023/06/24 01:43:13;;;;;;;13.20;9.30;;;;;;;22.34;71.21;99113.38;107121;1256;59611;-40
2023/06/24 01:45:42;;;;;;;13.40;9.20;;;;;;;22.32;71.14;99115.96;107140;1260;59989;-40
2023/06/24 01:48:14;;;;;;;15.50;8.80;;;;;;;22.34;71.32;99118.10;107182;1257;73049;-40
2023/06/24 01:50:55;;;;;;;12.10;9.60;;;;;;;22.37;71.25;99120.22;107221;1257;67072;-40
2023/06/24 01:53:23;;;;;;;15.50;9.70;;;;;;;22.41;71.25;99122.06;107066;1258;72666;-40
2023/06/24 01:55:51;;;;;;;12.90;8.90;;;;;;;22.43;71.24;99121.67;107225;1257;60420;-40
2023/06/24 01:58:18;;;;;;;14.60;9.30;;;;;;;22.46;71.15;99125.68;107101;1255;59882;-40
2023/06/24 02:00:46;;;;;;;11.40;9.10;;;;;;;22.45;70.83;99129.42;107217;1257;71616;-40
2023/06/24 02:03:14;;;;;;;12.60;9.20;;;;;;;22.48;70.94;99130.20;107246;1257;67094;-40
2023/06/24 02:05:42;;;;;;;13.10;9.30;;;;;;;22.53;71.14;99131.70;107198;1258;70589;-40
2023/06/24 02:08:11;;;;;;;11.20;9.70;;;;;;;22.56;70.91;99134.34;107097;1256;60050;-40
2023/06/24 02:10:39;;;;;;;14.70;9.90;;;;;;;22.56;70.77;99133.89;107075;1263;59515;-40
2023/06/24 02:13:07;;;;;;;12.20;9.30;;;;;;;22.55;70.52;99135.33;107099;1258;73066;-40
2023/06/24 02:15:36;;;;;;;13.10;9.00;;;;;;;22.55;70.56;99135.17;107282;1260;66279;-40
2023/06/24 02:18:06;;;;;;;13.60;9.00;;;;;;;22.52;70.22;99140.54;107208;1257;72709;-40
2023/06/24 02:20:34;;;;;;;11.40;8.70;;;;;;;22.47;70.33;99138.73;107110;1257;59938;-40
2023/06/24 02:23:01;;;;;;;11.20;9.00;;;;;;;22.42;70.49;99132.27;107264;1255;59790;-40
2023/06/24 02:25:29;;;;;;;10.40;8.60;;;;;;;22.43;70.66;99134.71;107276;1260;73085;-40
2023/06/24 02:27:57;;;;;;;12.20;8.70;;;;;;;22.46;70.50;99136.42;107290;1256;66591;-40
2023/06/24 02:30:25;;;;;;;11.90;8.10;;;;;;;22.43;70.41;99146.06;107216;1255;72687;-40
2023/06/24 02:32:54;;;;;;;13.90;8.30;;;;;;;22.36;70.53;99146.85;107191;1257;60427;-40
2023/06/24 02:35:21;;;;;;;9.90;8.30;;;;;;;22.29;70.64;99152.54;107211;1255;59998;-40
2023/06/24 02:37:49;;;;;;;12.10;9.00;;;;;;;22.18;71.35;99164.77;107191;1256;73105;-40
2023/06/24 02:40:17;;;;;;;13.90;8.70;;;;;;;22.07;72.16;99159.43;107272;1257;66279;-40
2023/06/24 02:42:44;;;;;;;10.80;8.40;;;;;;;21.95;72.60;99169.09;107208;1256;71955;-40
2023/06/24 02:45:12;;;;;;;11.90;8.00;;;;;;;21.85;73.03;99167.96;107088;1258;61684;-40
2023/06/24 02:47:41;;;;;;;10.80;7.50;;;;;;;21.81;73.22;99172.44;107138;1257;60142;-40
2023/06/24 02:50:09;;;;;;;11.20;7.70;;;;;;;21.80;73.60;99171.02;107208;1257;73336;-40
2023/06/24 02:52:37;;;;;;;11.20;7.50;;;;;;;21.80;73.74;99169.45;107262;1256;67586;-40
2023/06/24 02:55:08;;;;;;;11.30;7.50;;;;;;;21.80;73.55;99174.05;107263;1257;72617;-40
2023/06/24 02:57:54;;;;;;;12.50;7.00;;;;;;;21.81;73.45;99179.36;107245;1257;60397;-40
2023/06/24 03:00:33;;;;;;;11.00;6.90;;;;;;;21.84;73.13;99185.52;107201;1257;59573;-40
2023/06/24 03:03:10;;;;;;;11.20;6.40;;;;;;;21.87;72.83;99188.31;107319;1257;73068;-40
2023/06/24 03:05:44;;;;;;;9.80;6.70;;;;;;;21.86;72.72;99184.19;107159;1260;68033;-40
2023/06/24 03:08:12;;;;;;;10.70;6.60;;;;;;;21.89;72.84;99185.92;107245;1258;72648;-40
2023/06/24 03:10:41;;;;;;;10.00;6.10;;;;;;;21.92;72.62;99181.31;107353;1255;60365;-40
2023/06/24 03:13:13;;;;;;;12.50;6.40;;;;;;;22.00;72.01;99177.16;107337;1257;59507;-40
2023/06/24 03:15:44;;;;;;;10.50;6.60;;;;;;;22.13;71.85;99182.14;107314;1257;71723;-40
2023/06/24 03:18:12;;;;;;;10.60;6.30;;;;;;;22.22;71.53;99178.71;107346;1257;66624;-40
2023/06/24 03:20:40;;;;;;;10.30;6.10;;;;;;;22.27;71.16;99175.70;107282;1260;72651;-40
2023/06/24 03:23:11;;;;;;;10.20;6.20;;;;;;;22.33;70.93;99175.02;107292;1257;60417;-40
2023/06/24 03:25:39;;;;;;;13.40;6.20;;;;;;;22.42;70.55;99174.27;107321;1257;59506;-40
2023/06/24 03:28:09;;;;;;;9.80;6.00;;;;;;;22.49;70.65;99180.20;107295;1255;71811;-40
2023/06/24 03:30:42;;;;;;;9.30;6.00;;;;;;;22.51;70.48;99184.22;107281;1257;66277;-40
2023/06/24 03:33:16;;;;;;;14.60;6.80;;;;;;;22.52;71.08;99198.20;107230;1257;71398;-40
2023/06/24 03:35:45;;;;;;;12.10;7.00;;;;;;;22.44;71.83;99200.56;107393;1257;60537;-40
2023/06/24 03:38:15;;;;;;;10.70;6.00;;;;;;;22.41;72.00;99201.14;107313;1257;59272;-40
2023/06/24 03:40:43;;;;;;;14.20;5.80;;;;;;;22.39;71.75;99198.99;107210;1256;71747;-40
2023/06/24 03:43:11;;;;;;;9.80;5.80;;;;;;;22.35;71.54;99199.20;107267;1256;67761;-40
2023/06/24 03:45:39;;;;;;;9.80;5.40;;;;;;;22.32;71.64;99193.29;107184;1257;72772;-40
2023/06/24 03:48:07;;;;;;;9.60;5.10;;;;;;;22.29;71.59;99194.25;107231;1257;60411;-40
2023/06/24 03:50:35;;;;;;;8.90;5.00;;;;;;;22.30;71.61;99189.95;107177;1257;60074;-40
2023/06/24 03:53:03;;;;;;;11.00;5.40;;;;;;;22.33;71.39;99193.27;107241;1257;73880;-39
2023/06/24 03:55:32;;;;;;;8.10;4.70;;;;;;;22.34;71.02;99191.66;107205;1261;66419;-38
2023/06/24 03:58:00;;;;;;;12.90;5.50;;;;;;;22.36;70.89;99190.27;107120;1263;72652;-38
2023/06/24 04:00:28;;;;;;;9.40;5.30;;;;;;;22.37;70.98;99184.05;107162;1255;60333;-39
2023/06/24 04:02:55;;;;;;;10.70;4.70;;;;;;;22.37;70.48;99186.18;107251;1257;60276;-38
2023/06/24 04:05:24;;;;;;;10.70;4.90;;;;;;;22.41;70.17;99181.31;107093;1257;73818;-39
2023/06/24 04:07:53;;;;;;;8.40;4.50;;;;;;;22.49;70.15;99179.25;107158;1257;67617;-39
2023/06/24 04:10:21;;;;;;;12.20;5.30;;;;;;;22.56;70.22;99170.91;107247;1257;72735;-38
2023/06/24 04:12:48;;;;;;;11.50;4.90;;;;;;;22.63;70.08;99170.80;107304;1257;60395;-38
2023/06/24 04:15:16;;;;;;;11.80;4.90;;;;;;;22.69;69.57;99164.54;107203;1260;60255;-38
2023/06/24 04:17:44;;;;;;;11.10;4.60;;;;;;;22.71;69.49;99162.44;107211;1257;73802;-38
2023/06/24 04:20:11;;;;;;;9.70;5.40;;;;;;;22.76;69.27;99164.52;107167;1257;66629;-38
2023/06/24 04:22:40;;;;;;;11.30;5.00;;;;;;;22.80;69.20;99166.09;107185;1257;71891;-38
2023/06/24 04:25:08;;;;;;;8.60;4.60;;;;;;;22.85;68.93;99164.66;107291;1257;60504;-38
2023/06/24 04:27:36;;;;;;;9.90;5.40;;;;;;;22.88;68.90;99161.70;107154;1263;60368;-38
2023/06/24 04:30:06;;;;;;;;;;;;;;;22.91;68.77;99157.02;107184;1256;73893;-40
2023/06/24 04:32:36;;;;;;;12.00;5.10;;;;;;;22.90;68.83;99164.16;107033;1257;68160;-40
2023/06/24 04:35:04;;;;;;;8.90;4.30;;;;;;;22.86;69.06;99163.35;107293;1257;71377;-40
2023/06/24 04:37:32;;;;;;;12.60;4.90;;;;;;;22.91;68.94;99161.83;107279;1254;60493;-40
2023/06/24 04:40:01;;;;;;;11.00;5.10;;;;;;;22.96;68.41;99159.63;107340;1257;60328;-40
2023/06/24 04:42:28;;;;;;;7.10;4.20;;;;;;;23.00;68.36;99165.42;107223;1257;73815;-40
2023/06/24 04:44:56;;;;;;;10.40;4.90;;;;;;;23.01;68.37;99165.23;107288;1256;67659;-40
2023/06/24 04:47:23;;;;;;;13.30;5.10;;;;;;;23.01;68.02;99163.66;107289;1257;71359;-40
2023/06/24 04:49:51;;;;;;;9.30;4.70;;;;;;;23.02;68.04;99161.73;107244;1260;61687;-40
2023/06/24 04:52:19;;;;;;;9.10;4.60;;;;;;;23.04;67.83;99159.41;107226;1256;59292;-40
2023/06/24 04:54:46;;;;;;;12.40;5.00;;;;;;;23.05;68.11;99161.37;107220;1256;72553;-40
2023/06/24 04:57:25;;;;;;;11.10;4.80;;;;;;;23.06;68.47;99160.32;107266;1256;67698;-40
2023/06/24 04:59:53;;;;;;;11.00;5.50;;;;;;;23.07;68.54;99164.23;107307;1257;72674;-40
2023/06/24 05:02:20;;;;;;;10.90;4.80;;;;;;;23.04;68.51;99165.59;107266;1257;60494;-40
2023/06/24 05:04:48;;;;;;;10.10;4.70;;;;;;;23.08;68.61;99169.96;107165;1257;60570;-40
2023/06/24 05:07:16;;;;;;;8.80;4.80;;;;;;;23.17;68.61;99173.35;107209;1260;73831;-40
2023/06/24 05:09:47;;;;;;;9.90;4.80;;;;;;;23.21;68.20;99166.73;107204;1257;67852;-40
2023/06/24 05:12:15;;;;;;;11.40;5.20;;;;;;;23.20;68.32;99165.65;107287;1257;72664;-40
2023/06/24 05:14:43;;;;;;;9.40;4.60;;;;;;;23.20;68.47;99169.08;107213;1257;61624;-40
2023/06/24 05:17:11;;;;;;;8.40;4.80;;;;;;;23.24;68.65;99166.39;107331;1254;60017;-40
2023/06/24 05:19:39;;;;;;;10.20;4.80;;;;;;;23.30;68.62;99168.45;107292;1256;73897;-40
2023/06/24 05:22:06;;;;;;;9.90;4.70;;;;;;;23.33;68.32;99167.02;107249;1260;66656;-40
2023/06/24 05:24:34;;;;;;;9.80;5.10;;;;;;;23.30;68.23;99162.05;107320;1257;72666;-40
2023/06/24 05:27:06;;;;;;;11.70;5.30;;;;;;;23.29;68.02;99166.73;107351;1257;61660;-40
2023/06/24 05:29:34;;;;;;;11.50;4.90;;;;;;;23.30;68.02;99166.80;107353;1260;60505;-40
2023/06/24 05:32:03;;;;;;;9.20;4.80;;;;;;;23.33;68.11;99168.42;107270;1258;73829;-40
2023/06/24 05:34:31;;;;;;;9.80;5.00;;;;;;;23.34;68.37;99167.67;107255;1257;67561;-40
2023/06/24 05:36:58;;;;;;;13.60;5.10;;;;;;;23.36;68.42;99175.66;107230;1257;72656;-40
2023/06/24 05:39:26;;;;;;;12.00;5.00;;;;;;;23.35;68.59;99177.98;107240;1256;61731;-40
2023/06/24 05:41:54;;;;;;;12.20;5.00;;;;;;;23.38;68.40;99179.54;107229;1256;60093;-40
2023/06/24 05:44:22;;;;;;;9.90;4.90;;;;;;;23.42;68.33;99184.23;107327;1256;73825;-40
2023/06/24 05:46:50;;;;;;;12.30;5.00;;;;;;;23.46;68.60;99186.92;107383;1260;67583;-40
2023/06/24 05:49:18;;;;;;;10.70;5.20;;;;;;;23.48;68.12;99185.78;107325;1255;72658;-40
2023/06/24 05:51:45;;;;;;;11.20;4.90;;;;;;;23.49;68.30;99184.16;107327;1256;61663;-40
2023/06/24 05:54:13;;;;;;;9.70;4.70;;;;;;;23.53;67.92;99179.98;107393;1257;60731;-40
2023/06/24 05:56:41;;;;;;;9.20;5.10;;;;;;;23.60;68.01;99179.78;107302;1257;73878;-40
2023/06/24 05:59:09;;;;;;;11.90;5.20;;;;;;;23.65;67.54;99184.52;107281;1257;66767;-40
2023/06/24 06:01:37;;;;;;;12.00;5.90;;;;;;;23.65;67.15;99180.58;107305;1257;71797;-39
2023/06/24 06:04:07;;;;;;;12.30;5.30;;;;;;;23.63;67.01;99172.90;107281;1257;60511;-39
2023/06/24 06:06:35;;;;;;;10.40;5.00;;;;;;;23.63;67.22;99175.52;107332;1257;60500;-37
2023/06/24 06:09:03;;;;;;;14.30;5.50;;;;;;;23.66;66.73;99173.11;107258;1255;73947;-38
2023/06/24 06:11:31;;;;;;;11.00;5.30;;;;;;;23.69;66.85;99170.36;107327;1257;67895;-38
2023/06/24 06:13:58;;;;;;;12.70;5.30;;;;;;;23.71;66.91;99167.44;107263;1260;72642;-38
2023/06/24 06:16:26;;;;;;;11.70;5.30;;;;;;;23.75;66.66;99164.15;107218;1260;60466;-38
2023/06/24 06:18:54;;;;;;;10.40;5.30;;;;;;;23.77;66.21;99161.67;107303;1257;60525;-38
2023/06/24 06:21:21;;;;;;;11.30;5.00;;;;;;;23.75;66.43;99155.42;107317;1257;72559;-38
2023/06/24 06:23:49;;;;;;;10.40;5.00;;;;;;;23.76;66.34;99146.44;107380;1257;67583;-38
2023/06/24 06:26:16;;;;;;;10.90;5.40;;;;;;;23.83;66.21;99143.44;107346;1255;72696;-38
2023/06/24 06:28:44;;;;;;;11.80;5.10;;;;;;;23.88;66.35;99141.98;107335;1257;60437;-38
2023/06/24 06:31:12;;;;;;;9.40;5.30;;;;;;;23.96;66.54;99138.96;107399;1255;60066;-39
2023/06/24 06:33:39;;;;;;;11.10;5.60;;;;;;;24.03;66.08;99137.02;107353;1256;73871;-38
2023/06/24 06:36:07;;;;;;;16.10;5.60;;;;;;;24.06;65.88;99126.95;107361;1257;66724;-38
2023/06/24 06:38:35;;;;;;;9.80;5.90;;;;;;;24.15;65.75;99128.11;107266;1257;73043;-38
2023/06/24 06:41:02;;;;;;;14.50;5.40;;;;;;;24.32;65.62;99128.93;107358;1260;60456;-38
2023/06/24 06:43:30;;;;;;;10.30;5.80;;;;;;;24.49;65.33;99127.10;107392;1255;59263;-38
2023/06/24 06:45:58;;;;;;;9.90;5.60;;;;;;;24.65;65.26;99129.44;107358;1257;73825;-38
2023/06/24 06:48:25;;;;;;;10.40;5.40;;;;;;;24.76;64.56;99132.39;107355;1257;67577;-38
2023/06/24 06:50:53;;;;;;;11.20;5.90;;;;;;;24.82;64.24;99133.97;107363;1260;72953;-38
2023/06/24 06:53:20;;;;;;;9.90;5.10;;;;;;;24.84;63.74;99143.62;107286;1255;62211;-38
2023/06/24 06:55:48;;;;;;;12.90;5.60;;;;;;;24.85;63.49;99154.42;107379;1255;60439;-38
2023/06/24 06:58:16;;;;;;;11.90;5.80;;;;;;;24.84;63.52;99159.34;107347;1257;73825;-38
2023/06/24 07:00:44;;;;;;;10.60;5.40;;;;;;;24.83;63.75;99163.09;107336;1257;68027;-38
2023/06/24 07:03:12;;;;;;;11.80;5.90;;;;;;;24.79;63.26;99166.30;107370;1257;72642;-39
2023/06/24 07:05:39;;;;;;;11.70;6.40;;;;;;;24.76;63.54;99165.61;107360;1257;60269;-38
2023/06/24 07:08:07;;;;;;;10.80;5.20;;;;;;;24.73;64.03;99173.15;107352;1257;60411;-38
2023/06/24 07:10:35;;;;;;;13.50;6.10;;;;;;;24.73;63.86;99178.02;107317;1257;73854;-38
2023/06/24 07:13:03;;;;;;;11.60;5.70;;;;;;;24.76;63.84;99183.58;107360;1257;67588;-38
2023/06/24 07:15:31;;;;;;;13.20;6.30;;;;;;;24.81;63.70;99181.95;107339;1257;72745;-38
2023/06/24 07:17:58;;;;;;;10.20;5.60;;;;;;;24.85;63.68;99182.27;107359;1258;60158;-38
2023/06/24 07:20:26;;;;;;;21.10;6.70;;;;;;;24.89;63.69;99179.41;107399;1255;60112;-38
2023/06/24 07:22:54;;;;;;;10.90;6.30;;;;;;;24.89;63.31;99174.13;107369;1257;73824;-38
2023/06/24 07:25:22;;;;;;;12.70;5.50;;;;;;;24.89;63.27;99180.35;107255;1256;68174;-38
2023/06/24 07:27:50;;;;;;;13.40;6.00;;;;;;;24.90;63.62;99188.40;107331;1256;71449;-37
2023/06/24 07:30:18;;;;;;;16.50;5.80;;;;;;;24.95;63.21;99193.77;107318;1256;60382;-38
2023/06/24 07:32:45;;;;;;;9.70;5.60;;;;;;;24.97;63.40;99198.79;107344;1256;60405;-38
2023/06/24 07:35:15;;;;;;;11.60;5.30;;;;;;;24.99;63.65;99198.17;107326;1257;73914;-38
2023/06/24 07:37:43;;;;;;;11.10;5.70;;;;;;;25.02;63.84;99199.06;107324;1258;67573;-38
2023/06/24 07:40:11;;;;;;;9.50;5.50;;;;;;;25.03;63.35;99200.21;107297;1257;71425;-38
2023/06/24 07:42:38;;;;;;;11.10;5.90;;;;;;;25.04;63.37;99201.81;107315;1257;60447;-38
2023/06/24 07:45:07;;;;;;;10.40;5.50;;;;;;;25.05;63.55;99202.34;107236;1257;60497;-38
2023/06/24 07:47:34;;;;;;;11.40;6.00;;;;;;;25.03;63.86;99207.08;107202;1256;73872;-38
2023/06/24 07:50:02;;;;;;;11.70;5.70;;;;;;;25.02;63.20;99208.95;107256;1256;66288;-38
2023/06/24 07:52:30;;;;;;;12.70;6.70;;;;;;;25.00;62.56;99203.75;107219;1257;72762;-38
2023/06/24 07:54:58;;;;;;;7.80;5.70;;;;;;;24.96;63.09;99210.41;107255;1257;61537;-38
2023/06/24 07:57:26;;;;;;;14.20;6.60;;;;;;;24.94;62.38;99207.63;107244;1257;60319;-38
2023/06/24 07:59:54;;;;;;;11.10;5.90;;;;;;;24.94;62.40;99212.80;107342;1256;73856;-38
2023/06/24 08:02:24;;;;;;;11.80;5.90;;;;;;;24.90;62.88;99212.70;107273;1257;67926;-38
2023/06/24 08:04:52;;;;;;;10.30;6.40;;;;;;;24.87;63.17;99212.23;107274;1257;72762;-38
2023/06/24 08:07:19;;;;;;;10.50;6.30;;;;;;;24.83;62.74;99211.48;107324;1256;61025;-38
2023/06/24 08:09:47;;;;;;;11.30;6.30;;;;;;;24.81;62.98;99206.13;107263;1257;61929;-38
2023/06/24 08:12:15;;;;;;;13.40;6.10;;;;;;;24.89;63.25;99205.55;107252;1257;73888;-38
2023/06/24 08:14:43;;;;;;;14.00;6.50;;;;;;;25.01;62.50;99203.23;107281;1257;68071;-38
2023/06/24 08:17:10;;;;;;;14.20;6.60;;;;;;;25.15;61.65;99204.60;107254;1257;72683;-38
2023/06/24 08:19:38;;;;;;;10.20;6.10;;;;;;;25.25;61.30;99200.32;107247;1256;60383;-38
2023/06/24 08:22:05;;;;;;;12.80;6.70;;;;;;;25.28;60.62;99198.73;107322;1256;60516;-38
2023/06/24 08:24:33;;;;;;;12.90;6.40;;;;;;;25.29;60.13;99193.30;107295;1256;73815;-38
2023/06/24 08:27:01;;;;;;;8.50;6.10;;;;;;;25.29;60.51;99194.73;107389;1257;68332;-38
2023/06/24 08:29:28;;;;;;;10.90;6.50;;;;;;;25.29;60.01;99188.47;107345;1260;71995;-38
2023/06/24 08:31:56;;;;;;;8.00;6.00;;;;;;;25.26;60.00;99185.48;107343;1255;61687;-38
2023/06/24 08:34:23;;;;;;;11.30;6.10;;;;;;;25.23;59.84;99191.95;107386;1256;59966;-38
2023/06/24 08:36:53;;;;;;;10.50;6.40;;;;;;;25.21;60.46;99192.70;107376;1257;73776;-38
2023/06/24 08:39:21;;;;;;;12.70;6.80;;;;;;;25.19;60.94;99193.40;107282;1254;66448;-38
2023/06/24 08:41:49;;;;;;;12.70;6.10;;;;;;;25.15;61.27;99199.72;107299;1257;72727;-40
2023/06/24 08:44:17;;;;;;;9.90;6.70;;;;;;;25.08;62.13;99200.15;107298;1257;60494;-38
2023/06/24 08:46:44;;;;;;;9.30;5.80;;;;;;;25.02;62.58;99203.02;107277;1255;60494;-38
2023/06/24 08:49:24;;;;;;;12.20;5.90;;;;;;;25.00;61.91;99205.23;107264;1257;73812;-38
2023/06/24 08:52:08;;;;;;;9.40;6.50;;;;;;;24.99;61.83;99211.14;107316;1257;67606;-38
2023/06/24 08:54:36;;;;;;;11.00;6.90;;;;;;;24.93;62.33;99211.11;107377;1254;73100;-39
2023/06/24 08:57:07;;;;;;;12.30;6.80;;;;;;;24.84;63.47;99211.61;107382;1255;60510;-39
2023/06/24 08:59:36;;;;;;;11.70;7.20;;;;;;;24.76;64.04;99215.83;107377;1256;59683;-39
2023/06/24 09:02:04;;;;;;;10.70;7.10;;;;;;;24.65;64.99;99220.60;107312;1257;73788;-39
2023/06/24 09:04:32;;;;;;;11.30;7.10;;;;;;;24.58;65.89;99224.47;107352;1256;67601;-39
2023/06/24 09:06:59;;;;;;;16.10;7.20;;;;;;;24.54;66.21;99226.62;107287;1260;71153;-40
2023/06/24 09:09:28;;;;;;;10.60;7.30;;;;;;;24.50;66.66;99221.39;107201;1256;60456;-40
2023/06/24 09:11:57;;;;;;;11.40;7.30;;;;;;;24.44;67.28;99216.08;107162;1256;60462;-40
2023/06/24 09:14:26;;;;;;;12.70;8.30;;;;;;;24.41;67.74;99217.57;107171;1257;73859;-40
2023/06/24 09:16:54;;;;;;;11.20;7.90;;;;;;;24.41;67.95;99216.73;107212;1256;67589;-40
2023/06/24 09:19:23;;;;;;;13.90;7.90;;;;;;;24.47;68.50;99213.58;107146;1256;72664;-40
2023/06/24 09:21:52;;;;;;;14.10;9.20;;;;;;;24.55;68.26;99209.85;107215;1257;60507;-40
2023/06/24 09:24:20;;;;;;;14.10;9.10;;;;;;;24.63;67.88;99212.28;107290;1256;59317;-40
2023/06/24 09:26:47;;;;;;;13.00;9.10;;;;;;;24.73;67.42;99211.36;107183;1256;73872;-40
2023/06/24 09:29:15;;;;;;;15.30;9.20;;;;;;;24.85;67.02;99209.81;107212;1256;67543;-40
2023/06/24 09:31:47;;;;;;;12.70;8.50;;;;;;;25.00;65.83;99204.94;107246;1256;71082;-40
2023/06/24 09:34:16;;;;;;;14.60;8.70;;;;;;;25.16;63.79;99202.13;107291;1260;60192;-41
2023/06/24 09:36:44;;;;;;;14.30;8.40;;;;;;;25.30;63.12;99196.33;107306;1257;60382;-40
2023/06/24 09:39:12;;;;;;;17.00;9.70;;;;;;;25.47;62.73;99197.41;107281;1256;73968;-40
2023/06/24 09:42:00;;;;;;;15.30;9.40;;;;;;;25.66;61.58;99198.73;107245;1257;67902;-40
2023/06/24 09:44:28;;;;;;;12.80;8.70;;;;;;;25.77;61.96;99197.80;107313;1256;71106;-40
2023/06/24 09:46:56;;;;;;;12.60;8.70;;;;;;;25.85;60.93;99193.02;107232;1257;60909;-40
2023/06/24 09:49:23;;;;;;;10.90;8.10;;;;;;;25.94;60.50;99192.16;107253;1257;60297;-40
2023/06/24 09:51:56;;;;;;;14.00;8.70;;;;;;;26.07;60.41;99195.11;107269;1257;73919;-40
2023/06/24 09:54:28;;;;;;;11.40;8.20;;;;;;;26.22;60.03;99199.17;107306;1260;66681;-40
2023/06/24 09:57:04;;;;;;;13.40;9.40;;;;;;;26.40;60.22;99200.13;107288;1257;72740;-40
2023/06/24 09:59:34;;;;;;;13.10;8.90;;;;;;;26.56;59.80;99201.34;107310;1257;60630;-40
2023/06/24 10:02:03;;;;;;;12.10;7.90;;;;;;;26.67;59.40;99193.75;107163;1257;60319;-40
2023/06/24 10:04:30;;;;;;;9.70;7.80;;;;;;;26.77;59.23;99196.04;107284;1256;73036;-40
2023/06/24 10:06:58;;;;;;;11.00;7.70;;;;;;;26.90;58.31;99194.45;107116;1256;66778;-40
2023/06/24 10:09:26;;;;;;;12.00;7.80;;;;;;;27.05;58.19;99193.21;107189;1257;73172;-40
2023/06/24 10:11:53;;;;;;;11.30;7.60;;;;;;;27.19;57.13;99190.51;107266;1257;60530;-40
2023/06/24 10:14:21;;;;;;;9.90;7.40;;;;;;;27.33;57.01;99187.94;107238;1256;60293;-40
2023/06/24 10:16:48;;;;;;;8.40;7.10;;;;;;;27.47;56.19;99186.42;107160;1254;73872;-41
2023/06/24 10:19:21;;;;;;;9.10;7.20;;;;;;;27.60;54.95;99188.20;107540;1256;67089;-41
2023/06/24 10:21:54;;;;;;;12.70;6.90;;;;;;;27.69;54.41;99188.12;107352;1259;71748;-38
2023/06/24 10:24:32;;;;;;;12.90;6.80;;;;;;;27.79;52.20;99183.89;107349;1254;60202;-40
2023/06/24 10:27:16;;;;;;;9.50;6.40;;;;;;;27.88;53.02;99182.77;107320;1257;60325;-40
2023/06/24 10:29:48;;;;;;;11.00;7.20;;;;;;;27.97;52.65;99179.02;107215;1256;73985;-40
2023/06/24 10:32:15;;;;;;;9.90;6.90;;;;;;;28.08;52.45;99176.36;107339;1257;67763;-40
2023/06/24 10:34:48;;;;;;;9.10;7.10;;;;;;;28.20;51.96;99170.32;107249;1257;72678;-39
2023/06/24 10:37:31;;;;;;;8.50;6.80;;;;;;;28.28;52.13;99166.41;107167;1254;60468;-39
2023/06/24 10:40:00;;;;;;;11.30;6.60;;;;;;;28.45;52.04;99169.99;107221;1257;60665;-39
2023/06/24 10:42:41;;;;;;;9.30;7.00;;;;;;;28.65;50.31;99163.88;107212;1256;73026;-39
2023/06/24 10:45:09;;;;;;;6.90;5.80;;;;;;;28.80;48.65;99163.00;107293;1256;67881;-39
2023/06/24 10:48:03;;;;;;;10.90;6.80;;;;;;;28.88;48.77;99166.43;107205;1255;72726;-40
2023/06/24 10:50:31;;;;;;;8.70;5.90;;;;;;;29.02;48.39;99162.04;107259;1254;60475;-40
2023/06/24 10:53:01;;;;;;;9.80;6.50;;;;;;;29.16;47.07;99160.67;107310;1258;60336;-39
2023/06/24 10:55:29;;;;;;;10.90;6.30;;;;;;;29.27;47.13;99163.18;107267;1256;72591;-38
2023/06/24 10:58:10;;;;;;;11.90;6.70;;;;;;;29.32;47.02;99166.52;107323;1256;67544;-39
2023/06/24 11:00:39;;;;;;;9.20;6.90;;;;;;;29.34;47.42;99160.59;107206;1254;72651;-39
2023/06/24 11:03:11;;;;;;;8.30;6.30;;;;;;;29.42;46.78;99157.12;107258;1260;60405;-40
2023/06/24 11:05:46;;;;;;;11.20;6.40;;;;;;;29.59;46.77;99152.40;107389;1260;60453;-40
2023/06/24 11:08:13;;;;;;;8.30;6.70;;;;;;;29.74;46.18;99145.27;107332;1255;72145;-40
2023/06/24 11:10:45;;;;;;;10.30;6.80;;;;;;;29.89;46.51;99146.34;107456;1257;67606;-40
2023/06/24 11:13:13;;;;;;;8.20;6.60;;;;;;;30.06;46.61;99148.85;107376;1257;72639;-40
2023/06/24 11:15:42;;;;;;;9.00;6.00;;;;;;;30.17;46.68;99150.66;107458;1254;60138;-40
2023/06/24 11:18:10;;;;;;;7.20;5.80;;;;;;;30.28;44.56;99151.29;107315;1255;60291;-40
2023/06/24 11:20:38;;;;;;;8.40;5.90;;;;;;;30.51;44.89;99147.74;107320;1255;73845;-40
2023/06/24 11:23:10;;;;;;;8.60;6.60;;;;;;;30.77;44.12;99155.15;107417;1257;67586;-40
2023/06/24 11:25:42;;;;;;;8.80;6.20;;;;;;;30.90;44.29;99152.10;107321;1256;71448;-40
2023/06/24 11:28:19;;;;;;;10.10;6.60;;;;;;;31.01;43.83;99155.56;107348;1257;60103;-40
2023/06/24 11:30:50;;;;;;;9.90;6.70;;;;;;;31.13;43.71;99154.39;107133;1256;60430;-40
2023/06/24 11:33:28;;;;;;;9.90;7.10;;;;;;;31.10;44.16;99145.88;107314;1260;73842;-40